createdAt,value
2018-12-01T00:00:05.023Z,7.70
2018-12-01T00:02:33.238Z,7.70
2018-12-01T00:05:01.362Z,7.70
2018-12-01T00:07:29.660Z,7.60
2018-12-01T00:09:57.771Z,7.70
2018-12-01T00:12:25.872Z,7.60
2018-12-01T00:14:53.999Z,7.60
2018-12-01T00:17:22.097Z,7.60
2018-12-01T00:19:50.226Z,7.60
2018-12-01T00:22:18.357Z,7.60
2018-12-01T00:24:46.476Z,7.60
2018-12-01T00:27:14.565Z,7.60
2018-12-01T00:29:42.914Z,7.60
2018-12-01T00:32:11.062Z,7.50
2018-12-01T00:34:39.264Z,7.50
2018-12-01T00:37:07.426Z,7.60
2018-12-01T00:39:36.600Z,7.60
2018-12-01T00:42:04.866Z,7.60
2018-12-01T00:44:33.015Z,7.60
2018-12-01T00:47:01.141Z,7.60
2018-12-01T00:49:29.309Z,7.60
2018-12-01T00:51:57.447Z,7.60
2018-12-01T00:54:26.858Z,7.60
2018-12-01T00:56:55.239Z,7.60
2018-12-01T00:59:23.442Z,7.50
2018-12-01T01:01:51.549Z,7.50
2018-12-01T01:04:19.653Z,7.50
2018-12-01T01:06:47.765Z,7.50
2018-12-01T01:09:16.169Z,7.50
2018-12-01T01:11:44.282Z,7.50
2018-12-01T01:14:12.408Z,7.50
2018-12-01T01:16:40.518Z,7.50
2018-12-01T01:19:12.266Z,7.50
2018-12-01T01:21:42.244Z,7.50
2018-12-01T01:24:10.382Z,7.50
2018-12-01T01:26:40.432Z,7.40
2018-12-01T01:29:09.191Z,7.40
2018-12-01T01:31:37.299Z,7.40
2018-12-01T01:34:06.459Z,7.40
2018-12-01T01:36:35.501Z,7.40
2018-12-01T01:39:04.100Z,7.40
2018-12-01T01:41:32.253Z,7.40
2018-12-01T01:44:00.388Z,7.40
2018-12-01T01:46:28.482Z,7.40
2018-12-01T01:48:56.723Z,7.30
2018-12-01T01:51:24.818Z,7.30
2018-12-01T01:53:52.929Z,7.30
2018-12-01T01:56:21.040Z,7.20
2018-12-01T01:58:49.220Z,7.30
2018-12-01T02:01:17.359Z,7.30
2018-12-01T02:03:45.439Z,7.30
2018-12-01T02:06:13.618Z,7.30
2018-12-01T02:08:42.630Z,7.30
2018-12-01T02:11:10.751Z,7.30
2018-12-01T02:13:38.854Z,7.30
2018-12-01T02:16:07.126Z,7.30
2018-12-01T02:18:35.426Z,7.30
2018-12-01T02:21:03.538Z,7.30
2018-12-01T02:23:31.662Z,7.30
2018-12-01T02:25:59.753Z,7.30
2018-12-01T02:28:28.113Z,7.30
2018-12-01T02:30:56.226Z,7.40
2018-12-01T02:33:24.326Z,7.40
2018-12-01T02:35:52.435Z,7.40
2018-12-01T02:38:20.811Z,7.40
2018-12-01T02:40:48.903Z,7.40
2018-12-01T02:43:17.063Z,7.40
2018-12-01T02:45:56.442Z,7.40
2018-12-01T02:48:24.827Z,7.40
2018-12-01T02:50:52.987Z,7.40
2018-12-01T02:53:21.152Z,7.40
2018-12-01T02:55:49.313Z,7.40
2018-12-01T02:58:17.725Z,7.40
2018-12-01T03:00:45.857Z,7.40
2018-12-01T03:03:14.039Z,7.30
2018-12-01T03:05:42.222Z,7.40
2018-12-01T03:08:10.410Z,7.40
2018-12-01T03:10:38.566Z,7.30
2018-12-01T03:13:06.703Z,7.30
2018-12-01T03:15:34.875Z,7.30
2018-12-01T03:18:03.102Z,7.30
2018-12-01T03:20:31.300Z,7.30
2018-12-01T03:22:59.460Z,7.30
2018-12-01T03:25:27.618Z,7.30
2018-12-01T03:27:56.022Z,7.30
2018-12-01T03:30:25.212Z,7.30
2018-12-01T03:32:54.175Z,7.20
2018-12-01T03:35:23.335Z,7.20
2018-12-01T03:37:51.876Z,7.10
2018-12-01T03:40:20.837Z,7.10
2018-12-01T03:42:49.438Z,7.10
2018-12-01T03:45:19.463Z,7.00
2018-12-01T03:47:47.754Z,7.00
2018-12-01T03:50:21.292Z,7.00
2018-12-01T03:52:50.609Z,7.00
2018-12-01T03:55:31.001Z,7.00
2018-12-01T03:57:59.655Z,7.00
2018-12-01T04:00:33.255Z,7.00
2018-12-01T04:03:02.302Z,7.10
2018-12-01T04:05:30.794Z,7.10
2018-12-01T04:07:59.249Z,7.10
2018-12-01T04:10:27.361Z,7.10
2018-12-01T04:12:55.850Z,7.10
2018-12-01T04:15:24.069Z,7.00
2018-12-01T04:17:52.391Z,7.00
2018-12-01T04:20:20.548Z,7.00
2018-12-01T04:22:48.642Z,7.00
2018-12-01T04:25:16.758Z,7.00
2018-12-01T04:27:45.078Z,7.00
2018-12-01T04:30:18.361Z,7.00
2018-12-01T04:32:47.395Z,7.00
2018-12-01T04:35:18.280Z,7.00
2018-12-01T04:37:47.605Z,6.90
2018-12-01T04:40:15.908Z,7.00
2018-12-01T04:42:44.970Z,7.00
2018-12-01T04:45:13.100Z,7.00
2018-12-01T04:47:42.339Z,7.00
2018-12-01T04:50:14.783Z,7.00
2018-12-01T04:55:19.003Z,7.00
2018-12-01T04:57:47.351Z,7.10
2018-12-01T05:00:19.207Z,7.10
2018-12-01T05:02:47.358Z,7.10
2018-12-01T05:05:20.141Z,7.10
2018-12-01T05:07:48.491Z,7.10
2018-12-01T05:10:18.496Z,7.20
2018-12-01T05:12:46.623Z,7.20
2018-12-01T05:15:15.592Z,7.20
2018-12-01T05:17:44.358Z,7.20
2018-12-01T05:20:13.683Z,7.20
2018-12-01T05:22:41.800Z,7.20
2018-12-01T05:25:10.495Z,7.20
2018-12-01T05:27:39.737Z,7.20
2018-12-01T05:30:08.275Z,7.20
2018-12-01T05:32:37.026Z,7.20
2018-12-01T05:35:08.228Z,7.20
2018-12-01T05:37:36.538Z,7.20
2018-12-01T05:40:06.934Z,7.20
2018-12-01T05:42:35.353Z,7.20
2018-12-01T05:45:04.500Z,7.20
2018-12-01T05:47:34.763Z,7.20
2018-12-01T05:50:02.895Z,7.20
2018-12-01T05:52:31.017Z,7.20
2018-12-01T05:54:59.172Z,7.20
2018-12-01T05:57:27.542Z,7.20
2018-12-01T05:59:55.712Z,7.20
2018-12-01T06:02:23.878Z,7.30
2018-12-01T06:04:52.020Z,7.30
2018-12-01T06:07:20.182Z,7.30
2018-12-01T06:09:48.343Z,7.30
2018-12-01T06:12:16.494Z,7.40
2018-12-01T06:14:44.651Z,7.40
2018-12-01T06:17:12.804Z,7.40
2018-12-01T06:19:41.152Z,7.40
2018-12-01T06:22:09.320Z,7.40
2018-12-01T06:24:37.498Z,7.40
2018-12-01T06:27:05.665Z,7.40
2018-12-01T06:29:34.074Z,7.40
2018-12-01T06:32:02.222Z,7.40
2018-12-01T06:34:30.380Z,7.40
2018-12-01T06:36:58.522Z,7.40
2018-12-01T06:39:26.962Z,7.40
2018-12-01T06:41:55.125Z,7.40
2018-12-01T06:44:23.281Z,7.40
2018-12-01T06:46:51.690Z,7.40
2018-12-01T06:49:20.136Z,7.40
2018-12-01T06:51:48.337Z,7.40
2018-12-01T06:54:16.512Z,7.40
2018-12-01T06:56:44.738Z,7.40
2018-12-01T06:59:13.137Z,7.40
2018-12-01T07:01:41.314Z,7.50
2018-12-01T07:04:09.436Z,7.40
2018-12-01T07:06:37.562Z,7.40
2018-12-01T07:09:09.776Z,7.40
2018-12-01T07:11:38.076Z,7.40
2018-12-01T07:14:07.487Z,7.40
2018-12-01T07:16:35.753Z,7.40
2018-12-01T07:19:13.223Z,7.30
2018-12-01T07:21:41.511Z,7.40
2018-12-01T07:24:09.669Z,7.30
2018-12-01T07:26:37.869Z,7.30
2018-12-01T07:29:06.137Z,7.30
2018-12-01T07:31:34.256Z,7.30
2018-12-01T07:34:02.371Z,7.30
2018-12-01T07:36:30.446Z,7.30
2018-12-01T07:38:58.626Z,7.20
2018-12-01T07:41:26.776Z,7.20
2018-12-01T07:43:54.868Z,7.30
2018-12-01T07:46:22.953Z,7.20
2018-12-01T07:48:51.363Z,7.20
2018-12-01T07:51:19.519Z,7.20
2018-12-01T07:53:47.708Z,7.10
2018-12-01T07:56:15.880Z,7.10
2018-12-01T07:58:44.266Z,7.00
2018-12-01T08:01:13.480Z,7.00
2018-12-01T08:03:41.878Z,7.00
2018-12-01T08:06:10.050Z,6.90
2018-12-01T08:08:38.303Z,6.90
2018-12-01T08:11:06.457Z,6.90
2018-12-01T08:13:34.584Z,6.90
2018-12-01T08:16:02.753Z,6.80
2018-12-01T08:18:31.101Z,6.80
2018-12-01T08:20:59.258Z,6.80
2018-12-01T08:23:27.642Z,6.90
2018-12-01T08:25:55.827Z,6.90
2018-12-01T08:28:24.897Z,6.90
2018-12-01T08:30:53.444Z,6.90
2018-12-01T08:33:21.603Z,6.90
2018-12-01T08:35:49.749Z,6.90
2018-12-01T08:38:18.112Z,7.00
2018-12-01T08:40:46.263Z,7.00
2018-12-01T08:43:14.394Z,7.10
2018-12-01T08:45:42.485Z,7.10
2018-12-01T08:48:10.837Z,7.10
2018-12-01T08:50:38.958Z,7.20
2018-12-01T08:53:07.130Z,7.20
2018-12-01T08:55:35.269Z,7.20
2018-12-01T08:58:03.449Z,7.20
2018-12-01T09:00:37.320Z,7.20
2018-12-01T09:03:12.762Z,7.20
2018-12-01T09:05:40.929Z,7.30
2018-12-01T09:08:09.252Z,7.30
2018-12-01T09:10:37.674Z,7.30
2018-12-01T09:13:06.021Z,7.30
2018-12-01T09:15:36.841Z,7.30
2018-12-01T09:18:02.542Z,7.30
2018-12-01T09:20:30.691Z,7.30
2018-12-01T09:22:58.812Z,7.30
2018-12-01T09:25:26.902Z,7.40
2018-12-01T09:27:55.238Z,7.40
2018-12-01T09:30:25.486Z,7.40
2018-12-01T09:32:53.600Z,7.50
2018-12-01T09:35:21.733Z,7.50
2018-12-01T09:37:49.991Z,7.50
2018-12-01T09:40:19.255Z,7.60
2018-12-01T09:42:47.419Z,7.60
2018-12-01T09:45:17.438Z,7.60
2018-12-01T09:47:48.762Z,7.60
2018-12-01T09:50:16.901Z,7.60
2018-12-01T09:52:49.238Z,7.70
2018-12-01T09:55:19.859Z,7.70
2018-12-01T09:57:48.083Z,7.70
2018-12-01T10:00:17.325Z,7.70
2018-12-01T10:02:46.246Z,7.70
2018-12-01T10:05:16.459Z,7.70
2018-12-01T10:07:45.548Z,7.80
2018-12-01T10:10:15.654Z,7.80
2018-12-01T10:12:44.583Z,7.80
2018-12-01T10:15:13.983Z,7.80
2018-12-01T10:17:43.551Z,7.80
2018-12-01T10:20:17.868Z,7.80
2018-12-01T10:22:45.963Z,7.80
2018-12-01T10:25:15.118Z,7.80
2018-12-01T10:27:43.346Z,7.80
2018-12-01T10:30:12.602Z,7.80
2018-12-01T10:32:40.723Z,7.80
2018-12-01T10:35:10.177Z,7.90
2018-12-01T10:37:38.470Z,7.90
2018-12-01T10:40:10.132Z,7.90
2018-12-01T10:42:38.240Z,7.90
2018-12-01T10:45:09.639Z,7.90
2018-12-01T10:47:38.084Z,7.90
2018-12-01T10:50:09.692Z,7.90
2018-12-01T10:52:38.256Z,7.90
2018-12-01T10:55:10.736Z,8.00
2018-12-01T10:57:39.072Z,8.00
2018-12-01T11:00:15.410Z,8.10
2018-12-01T11:02:48.928Z,8.10
2018-12-01T11:05:17.027Z,8.10
2018-12-01T11:07:45.528Z,8.10
2018-12-01T11:10:14.066Z,8.10
2018-12-01T11:12:42.150Z,8.10
2018-12-01T11:15:10.548Z,8.10
2018-12-01T11:17:38.754Z,8.10
2018-12-01T11:20:09.565Z,8.20
2018-12-01T11:27:40.331Z,8.10
2018-12-01T11:30:14.693Z,8.10
2018-12-01T11:32:42.819Z,8.20
2018-12-01T11:35:10.940Z,8.20
2018-12-01T11:37:39.300Z,8.20
2018-12-01T11:40:09.075Z,8.20
2018-12-01T11:42:37.184Z,8.20
2018-12-01T11:45:07.347Z,8.20
2018-12-01T11:47:35.665Z,8.30
2018-12-01T11:50:04.418Z,8.30
2018-12-01T11:52:32.532Z,8.30
2018-12-01T11:55:00.648Z,8.40
2018-12-01T11:57:28.976Z,8.40
2018-12-01T11:59:57.095Z,8.40
2018-12-01T12:02:25.220Z,8.50
2018-12-01T12:04:53.323Z,8.50
2018-12-01T12:07:32.930Z,8.50
2018-12-01T12:10:01.045Z,8.50
2018-12-01T12:12:29.175Z,8.50
2018-12-01T12:14:57.263Z,8.50
2018-12-01T12:17:25.375Z,8.50
2018-12-01T12:19:53.542Z,8.50
2018-12-01T12:22:21.653Z,8.50
2018-12-01T12:24:49.783Z,8.50
2018-12-01T12:27:17.865Z,8.50
2018-12-01T12:29:45.977Z,8.40
2018-12-01T12:32:14.076Z,8.40
2018-12-01T12:34:42.176Z,8.50
2018-12-01T12:37:11.182Z,8.50
2018-12-01T12:39:40.280Z,8.50
2018-12-01T12:42:08.370Z,8.50
2018-12-01T12:44:36.461Z,8.50
2018-12-01T12:47:05.132Z,8.50
2018-12-01T12:49:33.430Z,8.50
2018-12-01T12:55:20.949Z,8.50
2018-12-01T12:57:49.286Z,8.50
2018-12-01T13:00:18.170Z,8.50
2018-12-01T13:02:50.490Z,8.50
2018-12-01T13:05:20.944Z,8.60
2018-12-01T13:07:49.383Z,8.60
2018-12-01T13:10:18.739Z,8.60
2018-12-01T13:12:46.908Z,8.60
2018-12-01T13:15:16.002Z,8.60
2018-12-01T13:17:44.668Z,8.60
2018-12-01T13:20:14.050Z,8.50
2018-12-01T13:22:42.213Z,8.50
2018-12-01T13:25:11.563Z,8.60
2018-12-01T13:27:42.219Z,8.60
2018-12-01T13:30:16.177Z,8.60
2018-12-01T13:32:44.410Z,8.60
2018-12-01T13:35:12.613Z,8.60
2018-12-01T13:37:41.090Z,8.50
2018-12-01T13:40:16.380Z,8.60
2018-12-01T13:42:45.155Z,8.60
2018-12-01T13:45:15.368Z,8.60
2018-12-01T13:47:43.836Z,8.60
2018-12-01T13:50:15.811Z,8.60
2018-12-01T13:52:45.529Z,8.60
2018-12-01T13:55:13.726Z,8.60
2018-12-01T13:57:42.042Z,8.60
2018-12-01T14:00:12.540Z,8.60
2018-12-01T14:02:40.791Z,8.60
2018-12-01T14:05:10.520Z,8.60
2018-12-01T14:07:38.871Z,8.60
2018-12-01T14:10:09.746Z,8.60
2018-12-01T14:12:37.854Z,8.60
2018-12-01T14:15:10.424Z,8.60
2018-12-01T14:17:41.208Z,8.60
2018-12-01T14:20:12.477Z,8.60
2018-12-01T14:22:40.591Z,8.60
2018-12-01T14:25:12.210Z,8.60
2018-12-01T14:27:41.602Z,8.60
2018-12-01T14:30:12.831Z,8.60
2018-12-01T14:32:40.951Z,8.60
2018-12-01T14:35:10.847Z,8.60
2018-12-01T14:37:39.024Z,8.60
2018-12-01T14:40:09.142Z,8.60
2018-12-01T14:42:37.259Z,8.60
2018-12-01T14:45:10.177Z,8.60
2018-12-01T14:47:38.508Z,8.60
2018-12-01T14:50:09.218Z,8.60
2018-12-01T14:52:38.483Z,8.60
2018-12-01T14:55:09.051Z,8.60
2018-12-01T14:57:37.321Z,8.60
2018-12-01T15:00:15.779Z,8.60
2018-12-01T15:02:44.754Z,8.60
2018-12-01T15:05:13.510Z,8.60
2018-12-01T15:07:43.419Z,8.60
2018-12-01T15:10:13.035Z,8.50
2018-12-01T15:12:42.653Z,8.60
2018-12-01T15:15:19.227Z,8.60
2018-12-01T15:17:48.966Z,8.60
2018-12-01T15:20:18.840Z,8.60
2018-12-01T15:22:50.130Z,8.50
2018-12-01T15:25:20.925Z,8.60
2018-12-01T15:27:49.189Z,8.60
2018-12-01T15:30:21.285Z,8.60
2018-12-01T15:33:03.677Z,8.60
2018-12-01T15:35:31.860Z,8.60
2018-12-01T15:38:00.382Z,8.50
2018-12-01T15:40:29.270Z,8.60
2018-12-01T15:42:58.391Z,8.50
2018-12-01T15:45:26.494Z,8.50
2018-12-01T15:47:54.627Z,8.50
2018-12-01T15:50:22.877Z,8.50
2018-12-01T15:52:53.469Z,8.50
2018-12-01T15:55:22.212Z,8.50
2018-12-01T15:57:50.653Z,8.40
2018-12-01T16:00:35.336Z,8.50
2018-12-01T16:03:03.443Z,8.40
2018-12-01T16:05:31.550Z,8.40
2018-12-01T16:07:59.950Z,8.40
2018-12-01T16:10:28.062Z,8.40
2018-12-01T16:13:05.780Z,8.40
2018-12-01T16:15:35.644Z,8.40
2018-12-01T16:18:03.852Z,8.40
2018-12-01T16:20:31.985Z,8.30
2018-12-01T16:23:00.101Z,8.30
2018-12-01T16:25:30.491Z,8.30
2018-12-01T16:27:59.173Z,8.30
2018-12-01T16:30:29.381Z,8.30
2018-12-01T16:32:59.406Z,8.20
2018-12-01T16:35:28.470Z,8.20
2018-12-01T16:37:57.095Z,8.20
2018-12-01T16:40:36.427Z,8.20
2018-12-01T16:43:06.999Z,8.20
2018-12-01T16:45:35.123Z,8.10
2018-12-01T16:48:03.448Z,8.10
2018-12-01T16:50:31.571Z,8.10
2018-12-01T16:52:59.745Z,8.10
2018-12-01T16:55:27.857Z,8.10
2018-12-01T16:57:56.034Z,8.10
2018-12-01T17:00:24.180Z,8.10
2018-12-01T17:02:54.030Z,8.10
2018-12-01T17:05:25.341Z,8.10
2018-12-01T17:07:53.938Z,8.10
2018-12-01T17:10:22.510Z,8.10
2018-12-01T17:12:51.911Z,8.10
2018-12-01T17:15:21.093Z,8.10
2018-12-01T17:17:49.316Z,8.10
2018-12-01T17:20:17.950Z,8.10
2018-12-01T17:22:49.430Z,8.10
2018-12-01T17:25:17.747Z,8.10
2018-12-01T17:27:46.770Z,8.20
2018-12-01T17:30:17.418Z,8.20
2018-12-01T17:32:45.589Z,8.20
2018-12-01T17:35:16.388Z,8.20
2018-12-01T17:37:45.921Z,8.20
2018-12-01T17:40:16.966Z,8.20
2018-12-01T17:42:48.306Z,8.20
2018-12-01T17:45:16.440Z,8.30
2018-12-01T17:47:44.864Z,8.30
2018-12-01T17:50:14.965Z,8.30
2018-12-01T17:52:44.777Z,8.30
2018-12-01T17:55:14.027Z,8.20
2018-12-01T17:57:43.395Z,8.30
2018-12-01T18:00:19.177Z,8.20
2018-12-01T18:02:47.816Z,8.20
2018-12-01T18:05:17.714Z,8.20
2018-12-01T18:07:47.141Z,8.30
2018-12-01T18:10:15.590Z,8.30
2018-12-01T18:12:44.247Z,8.30
2018-12-01T18:15:13.623Z,8.30
2018-12-01T18:17:42.712Z,8.30
2018-12-01T18:20:19.754Z,8.30
2018-12-01T18:22:59.365Z,8.30
2018-12-01T18:25:29.023Z,8.30
2018-12-01T18:27:58.742Z,8.30
2018-12-01T18:30:28.501Z,8.30
2018-12-01T18:32:58.796Z,8.30
2018-12-01T18:35:26.959Z,8.30
2018-12-01T18:37:55.207Z,8.30
2018-12-01T18:40:23.485Z,8.30
2018-12-01T18:42:52.026Z,8.30
2018-12-01T18:45:21.412Z,8.30
2018-12-01T18:47:49.770Z,8.30
2018-12-01T18:50:19.327Z,8.30
2018-12-01T18:52:56.748Z,8.30
2018-12-01T18:55:25.736Z,8.30
2018-12-01T18:57:54.067Z,8.30
2018-12-01T19:00:23.718Z,8.30
2018-12-01T19:02:52.604Z,8.40
2018-12-01T19:05:20.805Z,8.40
2018-12-01T19:07:51.033Z,8.40
2018-12-01T19:10:19.618Z,8.40
2018-12-01T19:12:49.197Z,8.40
2018-12-01T19:15:20.120Z,8.40
2018-12-01T19:17:50.046Z,8.40
2018-12-01T19:20:20.784Z,8.40
2018-12-01T19:22:49.784Z,8.40
2018-12-01T19:25:20.117Z,8.40
2018-12-01T19:27:48.884Z,8.50
2018-12-01T19:30:18.808Z,8.50
2018-12-01T19:32:49.695Z,8.50
2018-12-01T19:35:20.359Z,8.60
2018-12-01T19:37:49.822Z,8.50
2018-12-01T19:40:29.004Z,8.60
2018-12-01T19:42:57.824Z,8.60
2018-12-01T19:45:26.049Z,8.60
2018-12-01T19:47:54.453Z,8.60
2018-12-01T19:50:36.471Z,8.60
2018-12-01T19:53:05.768Z,8.70
2018-12-01T19:55:33.933Z,8.70
2018-12-01T19:58:19.323Z,8.70
2018-12-01T20:00:51.758Z,8.70
2018-12-01T20:03:22.095Z,8.70
2018-12-01T20:05:50.220Z,8.70
2018-12-01T20:08:19.664Z,8.80
2018-12-01T20:10:50.494Z,8.80
2018-12-01T20:13:23.172Z,8.80
2018-12-01T20:15:53.690Z,8.80
2018-12-01T20:18:26.849Z,8.80
2018-12-01T20:20:54.960Z,8.90
2018-12-01T20:23:23.690Z,8.90
2018-12-01T20:25:51.976Z,8.90
2018-12-01T20:28:21.776Z,8.90
2018-12-01T20:30:50.424Z,8.90
2018-12-01T20:33:20.416Z,8.90
2018-12-01T20:36:08.587Z,9.00
2018-12-01T20:38:41.680Z,9.00
2018-12-01T20:41:09.819Z,9.00
2018-12-01T20:43:38.288Z,9.00
2018-12-01T20:46:07.264Z,9.00
2018-12-01T20:48:35.444Z,9.00
2018-12-01T20:51:03.734Z,9.00
2018-12-01T20:53:31.911Z,9.00
2018-12-01T20:56:00.778Z,9.00
2018-12-01T20:58:31.904Z,9.00
2018-12-01T21:01:00.095Z,9.10
2018-12-01T21:03:28.262Z,9.10
2018-12-01T21:05:56.530Z,9.10
2018-12-01T21:08:27.850Z,9.10
2018-12-01T21:11:01.168Z,9.10
2018-12-01T21:13:29.614Z,9.10
2018-12-01T21:15:58.204Z,9.10
2018-12-01T21:18:26.417Z,9.10
2018-12-01T21:20:54.625Z,9.10
2018-12-01T21:23:22.802Z,9.10
2018-12-01T21:25:52.292Z,9.20
2018-12-01T21:28:21.269Z,9.20
2018-12-01T21:30:49.938Z,9.20
2018-12-01T21:33:21.148Z,9.20
2018-12-01T21:35:49.309Z,9.20
2018-12-01T21:38:18.239Z,9.20
2018-12-01T21:40:46.509Z,9.20
2018-12-01T21:43:14.683Z,9.20
2018-12-01T21:45:43.441Z,9.20
2018-12-01T21:48:12.961Z,9.20
2018-12-01T21:50:42.000Z,9.20
2018-12-01T21:53:13.255Z,9.20
2018-12-01T21:55:41.964Z,9.20
2018-12-01T21:58:10.371Z,9.20
2018-12-01T22:00:41.718Z,9.20
2018-12-01T22:03:12.637Z,9.30
2018-12-01T22:05:45.570Z,9.30
2018-12-01T22:08:16.089Z,9.30
2018-12-01T22:10:47.338Z,9.30
2018-12-01T22:13:15.491Z,9.30
2018-12-01T22:15:44.103Z,9.30
2018-12-01T22:18:12.731Z,9.30
2018-12-01T22:20:40.840Z,9.30
2018-12-01T22:23:09.480Z,9.30
2018-12-01T22:25:37.612Z,9.40
2018-12-01T22:28:09.231Z,9.40
2018-12-01T22:30:37.727Z,9.40
2018-12-01T22:33:10.446Z,9.40
2018-12-01T22:35:39.883Z,9.40
2018-12-01T22:38:08.683Z,9.40
2018-12-01T22:40:37.238Z,9.40
2018-12-01T22:43:06.783Z,9.40
2018-12-01T22:45:36.030Z,9.40
2018-12-01T22:48:06.217Z,9.40
2018-12-01T22:50:34.391Z,9.50
2018-12-01T22:53:03.224Z,9.40
2018-12-01T22:55:32.481Z,9.40
2018-12-01T22:58:10.397Z,9.40
2018-12-01T23:00:48.358Z,9.40
2018-12-01T23:03:16.694Z,9.40
2018-12-01T23:05:44.926Z,9.40
2018-12-01T23:08:15.228Z,9.50
2018-12-01T23:10:43.319Z,9.50
2018-12-01T23:13:12.876Z,9.50
2018-12-01T23:15:41.242Z,9.50
2018-12-01T23:18:12.406Z,9.50
2018-12-01T23:20:43.025Z,9.50
2018-12-01T23:23:11.301Z,9.50
2018-12-01T23:25:40.198Z,9.50
2018-12-01T23:28:09.229Z,9.50
2018-12-01T23:30:37.911Z,9.50
2018-12-01T23:33:09.073Z,9.50
2018-12-01T23:35:37.387Z,9.50
2018-12-01T23:38:06.511Z,9.50
2018-12-01T23:40:34.614Z,9.60
2018-12-01T23:43:02.742Z,9.60
2018-12-01T23:45:30.860Z,9.60
2018-12-01T23:47:59.021Z,9.60
2018-12-01T23:50:28.722Z,9.60
2018-12-01T23:53:00.074Z,9.60
2018-12-01T23:55:29.782Z,9.60
2018-12-01T23:57:58.118Z,9.60
